Time;durP1;ratioP1;P1;durP2;ratioP2;P2;SDS_P1;SDS_P2;PMS_P1;PMS_P2;Temp;Humidity;BMP_temperature;BMP_pressure;BME280_temperature;BME280_humidity;BME280_pressure;Samples;Min_cycle;Max_cycle;Signal;HPM_P1;HPM_P2
2022/08/07 00:01:12;;;;;;;10.00;6.18;;;;;;;;;;4956859;28;20035;-84
2022/08/07 00:03:38;;;;;;;8.45;5.95;;;;;;;;;;4964696;28;20184;-84
2022/08/07 00:06:05;;;;;;;10.32;6.43;;;;;;;;;;4969441;28;20497;-84
2022/08/07 00:08:31;;;;;;;11.20;6.57;;;;;;;;;;4966329;28;20396;-84
2022/08/07 00:10:57;;;;;;;12.95;7.28;;;;;;;;;;4966706;28;20039;-84
2022/08/07 00:13:23;;;;;;;9.52;6.32;;;;;;;;;;4969176;28;20034;-84
2022/08/07 00:15:50;;;;;;;9.27;6.88;;;;;;;;;;4965753;28;20041;-85
2022/08/07 00:18:19;;;;;;;10.55;7.45;;;;;;;;;;4952499;28;20027;-84
2022/08/07 00:20:45;;;;;;;9.43;7.68;;;;;;;;;;4967401;28;20066;-84
2022/08/07 00:23:11;;;;;;;10.65;8.10;;;;;;;;;;4967097;28;20031;-84
2022/08/07 00:25:37;;;;;;;13.23;7.47;;;;;;;;;;4952233;28;20388;-84
2022/08/07 00:28:03;;;;;;;10.32;7.35;;;;;;;;;;4969099;28;20106;-84
2022/08/07 00:30:29;;;;;;;10.05;8.13;;;;;;;;;;4972547;28;20049;-84
2022/08/07 00:32:56;;;;;;;11.02;7.50;;;;;;;;;;4969548;28;20235;-84
2022/08/07 00:35:22;;;;;;;12.85;7.65;;;;;;;;;;4973159;28;20398;-84
2022/08/07 00:37:48;;;;;;;9.45;7.95;;;;;;;;;;4969548;28;20050;-85
2022/08/07 00:40:16;;;;;;;12.15;8.10;;;;;;;;;;4973776;28;20043;-84
2022/08/07 00:42:42;;;;;;;11.85;8.00;;;;;;;;;;4953620;28;20038;-85
2022/08/07 00:45:09;;;;;;;11.23;8.60;;;;;;;;;;4967864;28;20041;-84
2022/08/07 00:47:35;;;;;;;11.43;8.48;;;;;;;;;;4953464;28;20117;-84
2022/08/07 00:50:01;;;;;;;15.82;9.32;;;;;;;;;;4966532;28;20041;-84
2022/08/07 00:52:27;;;;;;;15.93;9.27;;;;;;;;;;4952296;28;20740;-84
2022/08/07 00:54:53;;;;;;;11.90;8.98;;;;;;;;;;4957021;28;20042;-84
2022/08/07 00:57:20;;;;;;;13.02;9.18;;;;;;;;;;5033566;28;20089;-84
2022/08/07 00:59:46;;;;;;;12.43;8.43;;;;;;;;;;4949632;28;20039;-85
2022/08/07 01:02:13;;;;;;;12.25;9.40;;;;;;;;;;4971279;28;20205;-84
2022/08/07 01:04:39;;;;;;;11.80;9.35;;;;;;;;;;4960592;28;20027;-85
2022/08/07 01:07:24;;;;;;;12.95;8.65;;;;;;;;;;5031849;28;20052;-84
2022/08/07 01:09:50;;;;;;;10.30;7.97;;;;;;;;;;4968747;28;22013;-84
2022/08/07 01:12:16;;;;;;;11.88;8.27;;;;;;;;;;4949337;28;20080;-84
2022/08/07 01:14:42;;;;;;;12.07;8.52;;;;;;;;;;4968170;28;20038;-84
2022/08/07 01:17:09;;;;;;;13.48;8.82;;;;;;;;;;4950206;28;20492;-84
2022/08/07 01:19:35;;;;;;;11.93;9.57;;;;;;;;;;5033975;28;20034;-85
2022/08/07 01:22:02;;;;;;;17.13;10.25;;;;;;;;;;5036551;28;20027;-84
2022/08/07 01:24:28;;;;;;;15.85;9.35;;;;;;;;;;4968602;28;20062;-84
2022/08/07 01:26:55;;;;;;;11.75;9.38;;;;;;;;;;4969017;28;20026;-84
2022/08/07 01:29:24;;;;;;;12.93;8.48;;;;;;;;;;4963302;28;20092;-84
2022/08/07 01:31:51;;;;;;;9.77;8.13;;;;;;;;;;4968415;28;20027;-84
2022/08/07 01:34:17;;;;;;;14.63;9.10;;;;;;;;;;4963505;28;20031;-84
2022/08/07 01:36:43;;;;;;;11.27;9.05;;;;;;;;;;4966146;28;20035;-85
2022/08/07 01:39:09;;;;;;;13.68;8.88;;;;;;;;;;5030694;28;20046;-84
2022/08/07 01:41:36;;;;;;;18.23;8.50;;;;;;;;;;4959816;28;20030;-85
2022/08/07 01:44:03;;;;;;;14.68;8.95;;;;;;;;;;4968187;28;20398;-84
2022/08/07 01:46:29;;;;;;;14.45;9.75;;;;;;;;;;4954747;28;20487;-84
2022/08/07 01:48:55;;;;;;;15.68;10.15;;;;;;;;;;4966291;28;20145;-84
2022/08/07 01:51:21;;;;;;;14.90;9.80;;;;;;;;;;4965371;28;20395;-84
2022/08/07 01:53:50;;;;;;;17.45;10.60;;;;;;;;;;4966275;28;20062;-84
2022/08/07 01:56:22;;;;;;;15.65;9.65;;;;;;;;;;4966597;28;20035;-84
2022/08/07 01:58:49;;;;;;;22.20;13.75;;;;;;;;;;4952775;28;20065;-84
2022/08/07 02:01:19;;;;;;;24.60;15.43;;;;;;;;;;4946153;28;20446;-84
2022/08/07 02:03:48;;;;;;;22.85;14.85;;;;;;;;;;5035505;28;20519;-83
2022/08/07 02:06:16;;;;;;;17.27;13.68;;;;;;;;;;4979756;28;20038;-84
2022/08/07 02:08:43;;;;;;;20.30;13.35;;;;;;;;;;4968293;28;20392;-83
2022/08/07 02:11:10;;;;;;;18.17;12.15;;;;;;;;;;4977179;28;20495;-84
2022/08/07 02:13:37;;;;;;;18.50;12.68;;;;;;;;;;4953064;28;20110;-84
2022/08/07 02:16:04;;;;;;;17.50;12.20;;;;;;;;;;4952981;28;20072;-84
2022/08/07 02:18:31;;;;;;;16.35;12.25;;;;;;;;;;4969365;28;20031;-87
2022/08/07 02:20:58;;;;;;;21.23;12.57;;;;;;;;;;4964852;28;20070;-84
2022/08/07 02:23:25;;;;;;;18.05;12.45;;;;;;;;;;4963450;28;20039;-83
2022/08/07 02:25:52;;;;;;;16.88;10.93;;;;;;;;;;4948938;28;20027;-84
2022/08/07 02:28:19;;;;;;;13.50;9.80;;;;;;;;;;4962200;28;20030;-84
2022/08/07 02:30:46;;;;;;;13.93;10.13;;;;;;;;;;5035026;28;20035;-84
2022/08/07 02:33:12;;;;;;;14.93;10.40;;;;;;;;;;4955477;28;20087;-84
2022/08/07 02:35:39;;;;;;;17.15;12.43;;;;;;;;;;4967072;28;20026;-84
2022/08/07 02:38:08;;;;;;;19.75;12.70;;;;;;;;;;4966608;28;20034;-84
2022/08/07 02:40:37;;;;;;;18.70;12.65;;;;;;;;;;4965165;28;20035;-84
2022/08/07 02:43:21;;;;;;;19.92;12.90;;;;;;;;;;4957297;28;20031;-84
2022/08/07 02:45:48;;;;;;;22.08;14.75;;;;;;;;;;4950209;28;20045;-83
2022/08/07 02:48:14;;;;;;;21.48;14.20;;;;;;;;;;4965985;28;20077;-84
2022/08/07 02:50:42;;;;;;;23.65;14.95;;;;;;;;;;4952350;28;20757;-83
2022/08/07 02:53:14;;;;;;;21.65;15.07;;;;;;;;;;4965249;28;20503;-84
2022/08/07 02:55:45;;;;;;;23.40;14.98;;;;;;;;;;5032680;28;20494;-83
2022/08/07 02:58:12;;;;;;;20.20;15.20;;;;;;;;;;4963980;28;20035;-83
2022/08/07 03:00:38;;;;;;;20.30;15.15;;;;;;;;;;4967675;28;20030;-84
2022/08/07 03:03:06;;;;;;;22.10;14.73;;;;;;;;;;4949927;28;20042;-84
2022/08/07 03:05:35;;;;;;;23.63;14.05;;;;;;;;;;4965061;28;20050;-84
2022/08/07 03:08:01;;;;;;;19.48;13.82;;;;;;;;;;4963645;28;20027;-84
2022/08/07 03:10:27;;;;;;;18.17;12.95;;;;;;;;;;4963808;28;20042;-84
2022/08/07 03:12:53;;;;;;;14.32;11.10;;;;;;;;;;4949235;28;20038;-84
2022/08/07 03:15:20;;;;;;;15.52;11.43;;;;;;;;;;4940578;28;20074;-84
2022/08/07 03:17:46;;;;;;;14.90;11.15;;;;;;;;;;4969528;28;20030;-84
2022/08/07 03:20:12;;;;;;;13.55;10.45;;;;;;;;;;4964534;28;20049;-84
2022/08/07 03:22:40;;;;;;;17.13;12.10;;;;;;;;;;4964542;28;20114;-85
2022/08/07 03:25:06;;;;;;;17.38;11.55;;;;;;;;;;4964772;28;20027;-84
2022/08/07 03:27:33;;;;;;;15.93;11.88;;;;;;;;;;5035419;28;20035;-84
2022/08/07 03:30:00;;;;;;;14.50;11.13;;;;;;;;;;4966541;28;20455;-84
2022/08/07 03:32:28;;;;;;;16.88;12.18;;;;;;;;;;4966639;28;20117;-84
2022/08/07 03:34:57;;;;;;;15.65;11.05;;;;;;;;;;4967219;28;20059;-84
2022/08/07 03:37:23;;;;;;;19.15;12.05;;;;;;;;;;4969458;28;20166;-84
2022/08/07 03:39:50;;;;;;;20.92;13.15;;;;;;;;;;4967987;28;20043;-83
2022/08/07 03:42:17;;;;;;;30.35;14.85;;;;;;;;;;4966179;28;20034;-83
2022/08/07 03:44:43;;;;;;;23.52;15.02;;;;;;;;;;4962870;28;20106;-84
2022/08/07 03:47:11;;;;;;;24.63;15.73;;;;;;;;;;4964186;28;20038;-84
2022/08/07 03:49:37;;;;;;;26.20;15.65;;;;;;;;;;5038786;28;20034;-84
2022/08/07 03:52:03;;;;;;;25.85;16.17;;;;;;;;;;4954929;28;20035;-84
2022/08/07 03:54:29;;;;;;;21.45;15.05;;;;;;;;;;4966806;28;20471;-84
2022/08/07 03:56:56;;;;;;;22.20;13.55;;;;;;;;;;4965111;28;20118;-83
2022/08/07 03:59:22;;;;;;;15.98;10.90;;;;;;;;;;4969292;28;20069;-83
2022/08/07 04:01:48;;;;;;;15.65;11.30;;;;;;;;;;4949558;28;20058;-83
2022/08/07 04:04:17;;;;;;;17.77;13.20;;;;;;;;;;4962600;28;20058;-83
2022/08/07 04:06:44;;;;;;;17.00;11.40;;;;;;;;;;4981512;28;20085;-84
2022/08/07 04:09:11;;;;;;;17.77;11.75;;;;;;;;;;4967839;28;20031;-83
2022/08/07 04:11:37;;;;;;;19.42;12.50;;;;;;;;;;4964137;28;20057;-84
2022/08/07 04:14:03;;;;;;;21.08;12.02;;;;;;;;;;4947093;28;20274;-84
2022/08/07 04:16:30;;;;;;;15.23;11.95;;;;;;;;;;4974594;28;20038;-84
2022/08/07 04:18:56;;;;;;;13.73;10.13;;;;;;;;;;4966521;28;20394;-84
2022/08/07 04:21:22;;;;;;;16.70;10.93;;;;;;;;;;4966910;28;20038;-84
2022/08/07 04:23:50;;;;;;;17.38;11.30;;;;;;;;;;5035518;28;20046;-84
2022/08/07 04:26:16;;;;;;;16.83;11.45;;;;;;;;;;4965130;28;20050;-84
2022/08/07 04:28:42;;;;;;;15.95;11.18;;;;;;;;;;4965757;28;20380;-85
2022/08/07 04:31:09;;;;;;;16.83;11.32;;;;;;;;;;4957396;28;20065;-84
2022/08/07 04:33:39;;;;;;;16.67;11.20;;;;;;;;;;4951512;28;20035;-84
2022/08/07 04:36:07;;;;;;;16.02;10.90;;;;;;;;;;4966198;28;20336;-84
2022/08/07 04:38:34;;;;;;;19.58;10.85;;;;;;;;;;4968208;28;20090;-83
2022/08/07 04:41:00;;;;;;;18.67;11.32;;;;;;;;;;4967480;28;20038;-84
2022/08/07 04:43:28;;;;;;;19.13;11.75;;;;;;;;;;4949992;28;20034;-84
2022/08/07 04:45:59;;;;;;;15.13;10.07;;;;;;;;;;4968889;28;20062;-84
2022/08/07 04:48:44;;;;;;;12.95;9.07;;;;;;;;;;4967726;28;20596;-84
2022/08/07 04:51:28;;;;;;;10.40;7.32;;;;;;;;;;4967386;28;20027;-84
2022/08/07 04:54:12;;;;;;;8.35;6.05;;;;;;;;;;4966430;28;20031;-84
2022/08/07 04:56:47;;;;;;;8.27;5.63;;;;;;;;;;5034871;28;20041;-84
2022/08/07 04:59:20;;;;;;;7.72;4.00;;;;;;;;;;4965998;28;20046;-84
2022/08/07 05:01:53;;;;;;;5.45;3.70;;;;;;;;;;4967313;28;20137;-84
2022/08/07 05:04:24;;;;;;;6.30;3.60;;;;;;;;;;5031515;28;20053;-84
2022/08/07 05:06:53;;;;;;;6.20;3.58;;;;;;;;;;4965425;28;20019;-84
2022/08/07 05:09:19;;;;;;;4.22;2.78;;;;;;;;;;4969851;28;20033;-82
2022/08/07 05:11:48;;;;;;;8.80;3.92;;;;;;;;;;4968233;28;20039;-83
2022/08/07 05:14:18;;;;;;;6.03;3.13;;;;;;;;;;4967026;28;20026;-83
2022/08/07 05:16:48;;;;;;;4.15;2.92;;;;;;;;;;4963339;28;20023;-76
2022/08/07 05:19:16;;;;;;;8.75;3.60;;;;;;;;;;4962495;28;20042;-75
2022/08/07 05:21:44;;;;;;;4.00;3.10;;;;;;;;;;4965842;28;20396;-76
2022/08/07 05:24:11;;;;;;;6.57;3.10;;;;;;;;;;4965784;28;20470;-76
2022/08/07 05:26:37;;;;;;;3.97;2.40;;;;;;;;;;4967631;28;20090;-76
2022/08/07 05:29:06;;;;;;;7.75;3.05;;;;;;;;;;4963274;28;20058;-76
2022/08/07 05:31:33;;;;;;;5.78;2.97;;;;;;;;;;4965230;28;20061;-76
2022/08/07 05:33:59;;;;;;;4.32;3.10;;;;;;;;;;4964627;28;20030;-76
2022/08/07 05:36:27;;;;;;;4.97;2.60;;;;;;;;;;4965255;28;20109;-77
2022/08/07 05:38:53;;;;;;;4.57;2.50;;;;;;;;;;4961458;28;20291;-77
2022/08/07 05:41:19;;;;;;;6.05;2.88;;;;;;;;;;4960971;28;20074;-77
2022/08/07 05:43:46;;;;;;;6.10;2.67;;;;;;;;;;4965458;28;20041;-77
2022/08/07 05:46:12;;;;;;;7.18;3.00;;;;;;;;;;4969249;28;20031;-77
2022/08/07 05:48:39;;;;;;;5.53;2.92;;;;;;;;;;4965421;28;20027;-84
2022/08/07 05:51:05;;;;;;;4.75;2.85;;;;;;;;;;4963012;28;20058;-85
2022/08/07 05:53:32;;;;;;;6.78;3.20;;;;;;;;;;4963447;28;20117;-85
2022/08/07 05:55:58;;;;;;;6.88;3.28;;;;;;;;;;4959273;28;20028;-85
2022/08/07 05:58:26;;;;;;;8.80;4.10;;;;;;;;;;4968636;28;20046;-85
2022/08/07 06:00:53;;;;;;;8.57;3.72;;;;;;;;;;4951563;28;20070;-85
2022/08/07 06:03:23;;;;;;;5.32;3.55;;;;;;;;;;4966465;28;20121;-85
2022/08/07 06:05:49;;;;;;;6.20;3.80;;;;;;;;;;4950354;28;20027;-85
2022/08/07 06:08:15;;;;;;;6.32;3.50;;;;;;;;;;4961733;28;20117;-85
2022/08/07 06:10:41;;;;;;;5.28;3.38;;;;;;;;;;4965197;28;20099;-84
2022/08/07 06:13:08;;;;;;;6.00;3.33;;;;;;;;;;4952861;28;20038;-85
2022/08/07 06:15:39;;;;;;;6.90;3.00;;;;;;;;;;4948714;28;20031;-85
2022/08/07 06:18:06;;;;;;;6.13;3.40;;;;;;;;;;4965532;28;20117;-86
2022/08/07 06:20:34;;;;;;;9.40;3.67;;;;;;;;;;4949426;28;20065;-85
2022/08/07 06:23:01;;;;;;;7.03;3.22;;;;;;;;;;4966470;28;20079;-85
2022/08/07 06:25:27;;;;;;;5.68;2.97;;;;;;;;;;4964760;28;20379;-85
2022/08/07 06:28:00;;;;;;;6.20;2.67;;;;;;;;;;4966600;28;20417;-85
2022/08/07 06:30:26;;;;;;;5.53;2.58;;;;;;;;;;4960383;28;20427;-86
2022/08/07 06:32:52;;;;;;;9.05;2.70;;;;;;;;;;4950440;28;20091;-85
2022/08/07 06:35:18;;;;;;;5.88;2.20;;;;;;;;;;4963847;28;20045;-86
2022/08/07 06:37:44;;;;;;;3.55;2.30;;;;;;;;;;4965300;28;20039;-85
2022/08/07 06:40:11;;;;;;;6.63;2.65;;;;;;;;;;5030703;28;20041;-86
2022/08/07 06:42:37;;;;;;;6.05;2.30;;;;;;;;;;4950529;28;20031;-86
2022/08/07 06:45:06;;;;;;;5.55;2.80;;;;;;;;;;4960315;28;20144;-85
2022/08/07 06:47:32;;;;;;;6.47;2.40;;;;;;;;;;4962954;28;20525;-85
2022/08/07 06:49:58;;;;;;;3.67;2.55;;;;;;;;;;4950355;28;20058;-85
2022/08/07 06:52:27;;;;;;;5.43;2.80;;;;;;;;;;4931376;28;20033;-85
2022/08/07 06:54:53;;;;;;;4.57;2.40;;;;;;;;;;4963086;28;20038;-86
2022/08/07 06:57:20;;;;;;;7.90;3.40;;;;;;;;;;5027803;28;20046;-86
2022/08/07 06:59:46;;;;;;;4.78;2.38;;;;;;;;;;4948849;28;20035;-86
2022/08/07 07:02:18;;;;;;;5.63;2.72;;;;;;;;;;4963510;28;20118;-85
2022/08/07 07:04:45;;;;;;;5.28;2.72;;;;;;;;;;4966564;28;20093;-85
2022/08/07 07:07:11;;;;;;;4.93;2.70;;;;;;;;;;4969189;28;20035;-85
2022/08/07 07:09:37;;;;;;;4.75;2.60;;;;;;;;;;4952483;28;20030;-85
2022/08/07 07:12:03;;;;;;;6.25;2.70;;;;;;;;;;4948137;28;20376;-85
2022/08/07 07:14:32;;;;;;;3.88;2.33;;;;;;;;;;4967017;28;20628;-85
2022/08/07 07:17:02;;;;;;;7.72;3.00;;;;;;;;;;4953570;28;20030;-85
2022/08/07 07:19:30;;;;;;;4.93;2.97;;;;;;;;;;4966515;28;20031;-85
2022/08/07 07:21:56;;;;;;;5.75;2.80;;;;;;;;;;4969428;28;20039;-85
2022/08/07 07:24:22;;;;;;;16.10;3.50;;;;;;;;;;4966626;28;20046;-85
2022/08/07 07:26:51;;;;;;;12.48;3.55;;;;;;;;;;4953199;28;20130;-85
2022/08/07 07:29:18;;;;;;;5.82;3.00;;;;;;;;;;4968489;28;20488;-85
2022/08/07 07:31:46;;;;;;;3.80;2.40;;;;;;;;;;4951520;28;20395;-85
2022/08/07 07:34:16;;;;;;;6.38;2.60;;;;;;;;;;4967430;28;20031;-85
2022/08/07 07:36:43;;;;;;;4.88;2.30;;;;;;;;;;4968780;28;20107;-85
2022/08/07 07:39:10;;;;;;;5.50;3.17;;;;;;;;;;4963391;28;20051;-84
2022/08/07 07:41:37;;;;;;;5.78;3.15;;;;;;;;;;4967397;28;20023;-84
2022/08/07 07:44:04;;;;;;;6.45;3.30;;;;;;;;;;4965844;28;20035;-86
2022/08/07 07:46:31;;;;;;;7.68;2.95;;;;;;;;;;5033405;28;20544;-81
2022/08/07 07:48:59;;;;;;;10.63;2.67;;;;;;;;;;4948124;28;20030;-83
2022/08/07 07:51:25;;;;;;;6.32;2.78;;;;;;;;;;4966149;28;20023;-82
2022/08/07 07:53:52;;;;;;;7.75;3.05;;;;;;;;;;4965515;28;20145;-82
2022/08/07 07:56:18;;;;;;;5.15;3.25;;;;;;;;;;4964953;28;20031;-82
2022/08/07 07:58:45;;;;;;;5.07;3.10;;;;;;;;;;4964893;28;20088;-82
2022/08/07 08:01:11;;;;;;;8.52;3.50;;;;;;;;;;5030939;28;20394;-82
2022/08/07 08:03:40;;;;;;;3.78;2.47;;;;;;;;;;4949329;28;20042;-84
2022/08/07 08:06:07;;;;;;;3.78;2.50;;;;;;;;;;4954740;28;20074;-83
2022/08/07 08:08:36;;;;;;;5.07;2.67;;;;;;;;;;4967485;28;20045;-83
2022/08/07 08:11:03;;;;;;;4.25;2.63;;;;;;;;;;5029210;28;20069;-83
2022/08/07 08:13:30;;;;;;;6.78;2.55;;;;;;;;;;4949355;28;20463;-82
2022/08/07 08:16:00;;;;;;;3.78;2.17;;;;;;;;;;4964744;28;20034;-83
2022/08/07 08:18:27;;;;;;;6.47;2.90;;;;;;;;;;4966433;28;20053;-82
2022/08/07 08:20:53;;;;;;;7.53;2.88;;;;;;;;;;4945150;28;20527;-83
2022/08/07 08:28:53;;;;;;;6.82;2.97;;;;;;;;;;4942731;28;20034;-83
2022/08/07 08:31:22;;;;;;;4.25;2.15;;;;;;;;;;4944274;28;20067;-83
2022/08/07 08:33:50;;;;;;;5.85;2.92;;;;;;;;;;4976265;28;20035;-83
2022/08/07 08:36:18;;;;;;;7.10;2.30;;;;;;;;;;4954118;28;20169;-83
2022/08/07 08:38:45;;;;;;;5.50;2.53;;;;;;;;;;4947201;28;20069;-84
2022/08/07 08:41:17;;;;;;;5.82;2.10;;;;;;;;;;4966662;28;20104;-84
2022/08/07 08:43:43;;;;;;;4.50;2.25;;;;;;;;;;4962497;28;20034;-84
2022/08/07 08:46:18;;;;;;;4.93;2.05;;;;;;;;;;4948620;28;20031;-84
2022/08/07 08:48:46;;;;;;;4.60;2.13;;;;;;;;;;4964588;28;20061;-84
2022/08/07 08:51:33;;;;;;;5.38;2.03;;;;;;;;;;4965199;28;20102;-84
2022/08/07 08:54:06;;;;;;;3.28;1.75;;;;;;;;;;4963932;28;20291;-83
2022/08/07 08:56:41;;;;;;;7.18;2.00;;;;;;;;;;4962311;28;20034;-83
2022/08/07 08:59:06;;;;;;;5.40;1.70;;;;;;;;;;4963333;28;20080;-84
2022/08/07 09:01:51;;;;;;;3.42;1.80;;;;;;;;;;4962083;28;20043;-83
2022/08/07 09:04:20;;;;;;;5.25;2.20;;;;;;;;;;4947927;28;20496;-85
2022/08/07 09:07:01;;;;;;;6.40;1.88;;;;;;;;;;4965285;28;20023;-84
2022/08/07 09:09:36;;;;;;;5.75;2.53;;;;;;;;;;5030916;28;20476;-83
2022/08/07 09:12:08;;;;;;;6.57;2.50;;;;;;;;;;4948773;28;20506;-84
2022/08/07 09:14:50;;;;;;;3.15;2.30;;;;;;;;;;5027556;28;20066;-78
2022/08/07 09:17:22;;;;;;;3.30;2.00;;;;;;;;;;4950508;28;20038;-78
2022/08/07 09:19:57;;;;;;;11.02;2.22;;;;;;;;;;5029913;28;20809;-78
2022/08/07 09:22:46;;;;;;;4.95;2.28;;;;;;;;;;4966939;28;20325;-78
2022/08/07 09:25:11;;;;;;;3.13;2.20;;;;;;;;;;4960216;28;20046;-77
2022/08/07 09:27:40;;;;;;;3.50;2.10;;;;;;;;;;4963964;28;20563;-78
2022/08/07 09:30:08;;;;;;;4.45;1.98;;;;;;;;;;4963388;28;20038;-77
2022/08/07 09:32:40;;;;;;;3.65;1.85;;;;;;;;;;4964015;28;20424;-83
2022/08/07 09:35:09;;;;;;;5.38;2.20;;;;;;;;;;4962153;28;20027;-76
2022/08/07 09:37:41;;;;;;;4.78;1.98;;;;;;;;;;4965742;28;20031;-79
2022/08/07 09:40:07;;;;;;;8.60;1.80;;;;;;;;;;4949960;28;20051;-76
2022/08/07 09:42:52;;;;;;;3.83;1.95;;;;;;;;;;4962973;28;20054;-76
2022/08/07 09:45:23;;;;;;;2.97;1.80;;;;;;;;;;4966317;28;20034;-76
2022/08/07 09:48:07;;;;;;;2.78;1.85;;;;;;;;;;4962499;28;20511;-76
2022/08/07 09:50:52;;;;;;;2.85;1.70;;;;;;;;;;4964496;28;20035;-78
2022/08/07 09:53:21;;;;;;;4.50;2.00;;;;;;;;;;4959397;28;20034;-77
2022/08/07 09:56:12;;;;;;;3.30;1.77;;;;;;;;;;4963560;28;20084;-77
2022/08/07 09:59:03;;;;;;;2.97;1.73;;;;;;;;;;4963018;28;20035;-77
2022/08/07 10:01:37;;;;;;;3.30;1.67;;;;;;;;;;4961032;28;20032;-77
2022/08/07 10:04:17;;;;;;;3.13;1.75;;;;;;;;;;4947297;28;20408;-77
2022/08/07 10:07:02;;;;;;;2.65;1.73;;;;;;;;;;4946644;28;20027;-77
2022/08/07 10:09:51;;;;;;;2.95;1.63;;;;;;;;;;4942683;28;20024;-77
2022/08/07 10:12:18;;;;;;;4.03;1.50;;;;;;;;;;4942087;28;20574;-77
2022/08/07 10:14:52;;;;;;;2.53;1.70;;;;;;;;;;4943606;28;20142;-77
2022/08/07 10:17:24;;;;;;;3.72;1.88;;;;;;;;;;4945564;28;20035;-77
2022/08/07 10:20:00;;;;;;;2.15;1.63;;;;;;;;;;4939319;28;20118;-77
2022/08/07 10:22:38;;;;;;;2.80;1.65;;;;;;;;;;4949424;28;20031;-78
2022/08/07 10:25:12;;;;;;;3.30;2.20;;;;;;;;;;4943511;28;20031;-78
2022/08/07 10:27:56;;;;;;;4.65;2.25;;;;;;;;;;4947812;28;20023;-78
2022/08/07 10:30:22;;;;;;;3.42;1.60;;;;;;;;;;4942551;28;20157;-78
2022/08/07 10:33:07;;;;;;;3.67;1.73;;;;;;;;;;4932953;28;20110;-78
2022/08/07 10:35:33;;;;;;;4.60;2.10;;;;;;;;;;4930733;28;20559;-78
2022/08/07 10:37:59;;;;;;;4.30;1.90;;;;;;;;;;4944271;28;20113;-78
2022/08/07 10:40:29;;;;;;;2.67;1.60;;;;;;;;;;4942853;28;20027;-77
2022/08/07 10:42:55;;;;;;;3.70;1.57;;;;;;;;;;4940775;28;20035;-77
2022/08/07 10:45:25;;;;;;;6.88;1.70;;;;;;;;;;4963089;28;20034;-80
2022/08/07 10:48:09;;;;;;;4.95;1.95;;;;;;;;;;4943106;28;20020;-78
2022/08/07 10:50:41;;;;;;;3.00;2.05;;;;;;;;;;4933606;28;20128;-78
2022/08/07 10:53:16;;;;;;;3.50;1.98;;;;;;;;;;4930654;28;20077;-78
2022/08/07 10:55:46;;;;;;;6.72;2.00;;;;;;;;;;4943465;28;20112;-78
2022/08/07 10:58:19;;;;;;;4.13;1.60;;;;;;;;;;4944162;28;20034;-78
2022/08/07 11:01:00;;;;;;;4.22;2.20;;;;;;;;;;4943797;28;20044;-78
2022/08/07 11:03:37;;;;;;;3.95;2.00;;;;;;;;;;4946207;28;20078;-77
2022/08/07 11:06:03;;;;;;;4.22;1.40;;;;;;;;;;4939131;28;20026;-77
2022/08/07 11:08:30;;;;;;;3.65;1.50;;;;;;;;;;4951683;28;20579;-77
2022/08/07 11:11:15;;;;;;;4.20;1.45;;;;;;;;;;4943688;28;20022;-78
2022/08/07 11:13:46;;;;;;;3.22;1.60;;;;;;;;;;4942736;28;20039;-78
2022/08/07 11:16:16;;;;;;;2.65;1.48;;;;;;;;;;4950007;28;20108;-77
2022/08/07 11:18:48;;;;;;;3.25;1.40;;;;;;;;;;4948177;28;20023;-78
2022/08/07 11:21:21;;;;;;;5.78;1.63;;;;;;;;;;4947423;28;20092;-78
2022/08/07 11:23:58;;;;;;;3.72;1.58;;;;;;;;;;4931827;28;20032;-77
2022/08/07 11:26:28;;;;;;;3.78;1.40;;;;;;;;;;4980374;28;20027;-78
2022/08/07 11:29:04;;;;;;;4.05;1.50;;;;;;;;;;4950616;28;20751;-78
2022/08/07 11:31:30;;;;;;;3.15;1.25;;;;;;;;;;4947317;28;20055;-77
2022/08/07 11:34:14;;;;;;;2.67;1.30;;;;;;;;;;4951561;28;20034;-77
2022/08/07 11:36:49;;;;;;;3.90;1.40;;;;;;;;;;4947158;28;20035;-78
2022/08/07 11:39:30;;;;;;;2.90;1.50;;;;;;;;;;4942264;28;20035;-76
2022/08/07 11:42:02;;;;;;;4.05;2.63;;;;;;;;;;4934060;28;20027;-76
2022/08/07 11:44:50;;;;;;;5.22;3.08;;;;;;;;;;4952113;28;20062;-77
2022/08/07 11:47:30;;;;;;;5.70;2.58;;;;;;;;;;4963026;28;20027;-76
2022/08/07 11:50:21;;;;;;;5.57;3.63;;;;;;;;;;4975049;28;20023;-75
2022/08/07 11:53:06;;;;;;;6.00;3.45;;;;;;;;;;4948208;28;20350;-77
2022/08/07 11:55:38;;;;;;;7.28;3.53;;;;;;;;;;4929977;28;20043;-77
2022/08/07 11:58:07;;;;;;;8.00;4.68;;;;;;;;;;4963815;28;20029;-77
2022/08/07 12:00:52;;;;;;;10.73;5.55;;;;;;;;;;4952476;28;20183;-79
2022/08/07 12:03:28;;;;;;;9.63;5.43;;;;;;;;;;5051355;28;20048;-77
2022/08/07 12:06:01;;;;;;;8.55;5.30;;;;;;;;;;5053352;28;20029;-77
2022/08/07 12:08:37;;;;;;;7.03;4.78;;;;;;;;;;5052067;28;20024;-77
2022/08/07 12:11:10;;;;;;;7.95;4.63;;;;;;;;;;5054115;28;20021;-77
2022/08/07 12:13:39;;;;;;;6.22;4.75;;;;;;;;;;5052139;28;20112;-80
2022/08/07 12:16:09;;;;;;;9.70;5.18;;;;;;;;;;5051382;28;20099;-77
2022/08/07 12:19:01;;;;;;;8.07;5.50;;;;;;;;;;5053543;28;20028;-77
2022/08/07 12:21:38;;;;;;;8.15;5.35;;;;;;;;;;5046363;28;20111;-77
2022/08/07 12:24:08;;;;;;;8.43;5.15;;;;;;;;;;5055216;28;20024;-77
2022/08/07 12:26:54;;;;;;;10.18;5.75;;;;;;;;;;5048911;28;20026;-83
2022/08/07 12:29:39;;;;;;;9.60;5.78;;;;;;;;;;5051640;28;20017;-84
2022/08/07 12:32:09;;;;;;;9.98;6.13;;;;;;;;;;5053174;28;20100;-85
2022/08/07 12:34:39;;;;;;;8.77;5.50;;;;;;;;;;5046976;28;20083;-77
2022/08/07 12:37:06;;;;;;;7.97;5.60;;;;;;;;;;5051481;28;20055;-76
2022/08/07 12:39:33;;;;;;;9.13;5.38;;;;;;;;;;5055623;28;20437;-76
2022/08/07 12:42:00;;;;;;;9.38;4.93;;;;;;;;;;5054854;28;20036;-77
2022/08/07 12:44:28;;;;;;;7.30;5.72;;;;;;;;;;5052452;28;20029;-76
2022/08/07 12:46:54;;;;;;;7.82;5.53;;;;;;;;;;5054743;28;20021;-77
2022/08/07 12:49:36;;;;;;;9.57;6.18;;;;;;;;;;5047459;28;20029;-76
2022/08/07 12:52:09;;;;;;;10.88;5.63;;;;;;;;;;5052809;28;20090;-76
2022/08/07 12:54:42;;;;;;;10.23;5.88;;;;;;;;;;5049958;28;20040;-76
2022/08/07 12:57:10;;;;;;;8.90;6.15;;;;;;;;;;5043517;28;20042;-77
2022/08/07 12:59:36;;;;;;;7.95;5.10;;;;;;;;;;5049665;28;20112;-76
2022/08/07 13:02:12;;;;;;;8.32;5.70;;;;;;;;;;5050587;28;20041;-76
2022/08/07 13:04:57;;;;;;;8.57;5.50;;;;;;;;;;5054286;28;20020;-76
2022/08/07 13:07:23;;;;;;;8.63;5.82;;;;;;;;;;5050683;28;20087;-76
2022/08/07 13:09:52;;;;;;;10.93;5.70;;;;;;;;;;5054347;28;20294;-76
2022/08/07 13:15:28;;;;;;;8.20;6.57;;;;;;;;;;5049601;28;20048;-76
2022/08/07 13:18:02;;;;;;;8.90;5.20;;;;;;;;;;5051655;28;20071;-77
2022/08/07 13:20:49;;;;;;;9.27;5.55;;;;;;;;;;5065390;28;20462;-76
2022/08/07 13:23:18;;;;;;;10.07;5.22;;;;;;;;;;5051299;28;20040;-76
2022/08/07 13:25:48;;;;;;;9.45;4.78;;;;;;;;;;5048386;28;20025;-76
2022/08/07 13:28:17;;;;;;;11.95;4.47;;;;;;;;;;5065531;28;20033;-76
2022/08/07 13:30:47;;;;;;;9.03;4.83;;;;;;;;;;5054633;28;20021;-77
2022/08/07 13:33:36;;;;;;;10.70;5.13;;;;;;;;;;5055581;28;20032;-77
2022/08/07 13:36:09;;;;;;;6.45;3.88;;;;;;;;;;5068559;28;20075;-76
2022/08/07 13:41:42;;;;;;;8.80;4.40;;;;;;;;;;5052812;28;20043;-77
2022/08/07 13:44:09;;;;;;;11.93;4.40;;;;;;;;;;5050159;28;20535;-77
2022/08/07 13:46:37;;;;;;;9.07;3.70;;;;;;;;;;5052163;28;20025;-78
2022/08/07 13:49:04;;;;;;;10.25;4.10;;;;;;;;;;5066941;28;20035;-76
2022/08/07 13:51:32;;;;;;;7.80;3.58;;;;;;;;;;5049816;28;20037;-77
2022/08/07 13:54:00;;;;;;;9.55;3.53;;;;;;;;;;5049298;28;20022;-76
2022/08/07 13:56:27;;;;;;;5.28;3.55;;;;;;;;;;5046579;28;20107;-77
2022/08/07 13:58:59;;;;;;;7.68;3.75;;;;;;;;;;5049923;28;20308;-77
2022/08/07 14:01:29;;;;;;;7.40;3.60;;;;;;;;;;5032394;28;20043;-76
2022/08/07 14:03:56;;;;;;;5.43;2.90;;;;;;;;;;4952907;28;20438;-76
2022/08/07 14:06:23;;;;;;;4.93;2.60;;;;;;;;;;4945938;28;20045;-76
2022/08/07 14:08:50;;;;;;;6.07;2.42;;;;;;;;;;4963213;28;20377;-76
2022/08/07 14:11:17;;;;;;;6.75;2.85;;;;;;;;;;4967459;28;20039;-77
2022/08/07 14:13:49;;;;;;;4.80;2.22;;;;;;;;;;4949990;28;20053;-76
2022/08/07 14:16:15;;;;;;;4.47;2.30;;;;;;;;;;4948323;28;20053;-76
2022/08/07 14:18:45;;;;;;;6.47;2.33;;;;;;;;;;4951139;28;20300;-76
2022/08/07 14:21:13;;;;;;;4.82;2.33;;;;;;;;;;5015137;28;20040;-75
2022/08/07 14:23:46;;;;;;;4.82;2.30;;;;;;;;;;4953595;28;20296;-76
2022/08/07 14:26:14;;;;;;;6.25;2.47;;;;;;;;;;4953434;28;20023;-76
2022/08/07 14:28:41;;;;;;;5.20;2.15;;;;;;;;;;4952780;28;20028;-77
2022/08/07 14:31:07;;;;;;;7.72;2.75;;;;;;;;;;5011798;28;20028;-76
2022/08/07 14:33:34;;;;;;;3.13;2.30;;;;;;;;;;5013179;28;20029;-76
2022/08/07 14:36:01;;;;;;;3.53;2.10;;;;;;;;;;4951012;28;20031;-76
2022/08/07 14:38:28;;;;;;;6.65;2.67;;;;;;;;;;4954114;28;20024;-76
2022/08/07 14:41:00;;;;;;;4.55;2.35;;;;;;;;;;4954644;28;20031;-76
2022/08/07 14:43:28;;;;;;;5.43;2.25;;;;;;;;;;4952565;28;20049;-76
2022/08/07 14:45:58;;;;;;;8.73;2.20;;;;;;;;;;5050563;28;20038;-75
2022/08/07 14:48:32;;;;;;;10.02;2.30;;;;;;;;;;5025696;28;20535;-76
2022/08/07 14:51:00;;;;;;;5.35;2.13;;;;;;;;;;5012309;28;20040;-76
2022/08/07 14:53:30;;;;;;;6.07;2.65;;;;;;;;;;5032370;28;20484;-76
2022/08/07 14:55:56;;;;;;;4.70;2.17;;;;;;;;;;4953348;28;20037;-75
2022/08/07 14:58:24;;;;;;;3.40;2.20;;;;;;;;;;4951449;28;20036;-76
2022/08/07 15:00:50;;;;;;;7.30;2.55;;;;;;;;;;4947977;28;20134;-76
2022/08/07 15:03:21;;;;;;;5.65;2.72;;;;;;;;;;4951022;28;20455;-76